Time;durP1;ratioP1;P1;durP2;ratioP2;P2;SDS_P1;SDS_P2;PMS_P1;PMS_P2;Temp;Humidity;BMP_temperature;BMP_pressure;BME280_temperature;BME280_humidity;BME280_pressure;Samples;Min_cycle;Max_cycle;Signal;HPM_P1;HPM_P2
2024/02/05 00:00:48;;;;;;;0.60;0.60;;;;;;;5.87;100.00;93761.53;2099816;28;20035;-80
2024/02/05 00:01:49;;;;;;;3.70;0.50;;;;;;;5.85;100.00;93750.56;2105326;28;20040;-81
2024/02/05 00:02:50;;;;;;;3.45;0.93;;;;;;;5.88;100.00;93753.22;2104695;28;20064;-79
2024/02/05 00:03:51;;;;;;;0.65;0.65;;;;;;;5.79;100.00;93758.88;2106898;28;20020;-80
2024/02/05 00:04:52;;;;;;;0.45;0.40;;;;;;;5.80;100.00;93756.97;2098682;28;20116;-82
2024/02/05 00:05:53;;;;;;;0.50;0.50;;;;;;;5.75;100.00;93759.94;2105461;28;20042;-81
2024/02/05 00:06:54;;;;;;;0.80;0.50;;;;;;;5.77;100.00;93755.81;2107869;28;20057;-81
2024/02/05 00:07:55;;;;;;;0.52;0.40;;;;;;;5.65;100.00;93760.63;2111078;28;20024;-81
2024/02/05 00:08:57;;;;;;;1.15;0.60;;;;;;;5.65;100.00;93761.41;2120523;27;20012;-80
2024/02/05 00:09:58;;;;;;;0.70;0.70;;;;;;;5.64;100.00;93767.06;2109018;28;20090;-81
2024/02/05 00:10:59;;;;;;;1.15;0.50;;;;;;;5.61;100.00;93760.59;2109957;28;20027;-81
2024/02/05 00:12:00;;;;;;;0.50;0.50;;;;;;;5.66;100.00;93762.16;2107353;28;20463;-80
2024/02/05 00:13:01;;;;;;;0.73;0.73;;;;;;;5.95;100.00;93763.16;2118885;27;20053;-81
2024/02/05 00:14:03;;;;;;;1.63;0.50;;;;;;;6.00;100.00;93763.56;2117504;27;20464;-78
2024/02/05 00:15:05;;;;;;;0.50;0.50;;;;;;;5.97;100.00;93766.19;2120002;27;20022;-80
2024/02/05 00:16:06;;;;;;;2.05;0.60;;;;;;;5.97;100.00;93766.97;2118855;27;20053;-79
2024/02/05 00:17:07;;;;;;;0.60;0.60;;;;;;;5.98;100.00;93775.69;2110872;28;20042;-81
2024/02/05 00:18:08;;;;;;;0.50;0.50;;;;;;;5.79;100.00;93769.47;2110452;28;20046;-79
2024/02/05 00:19:09;;;;;;;0.50;0.50;;;;;;;5.85;100.00;93766.47;2102157;28;20052;-78
2024/02/05 00:20:11;;;;;;;2.70;0.60;;;;;;;5.86;100.00;93765.34;2103682;28;20023;-81
2024/02/05 00:21:12;;;;;;;0.60;0.60;;;;;;;5.71;100.00;93764.47;2116535;27;20092;-80
2024/02/05 00:22:13;;;;;;;0.60;0.60;;;;;;;5.59;100.00;93768.19;2111267;28;20433;-80
2024/02/05 00:23:14;;;;;;;0.60;0.60;;;;;;;5.51;100.00;93771.91;2100791;27;20542;-80
2024/02/05 00:24:15;;;;;;;0.60;0.60;;;;;;;5.54;100.00;93769.28;2115153;27;20023;-80
2024/02/05 00:25:16;;;;;;;0.57;0.57;;;;;;;5.43;100.00;93771.06;2112656;28;20019;-81
2024/02/05 00:26:17;;;;;;;0.50;0.50;;;;;;;5.37;100.00;93771.78;2112272;27;20536;-81
2024/02/05 00:27:18;;;;;;;0.98;0.63;;;;;;;5.36;100.00;93762.31;2104358;28;20021;-79
2024/02/05 00:28:19;;;;;;;0.70;0.50;;;;;;;5.26;100.00;93767.13;2099209;28;20028;-79
2024/02/05 00:29:20;;;;;;;0.93;0.60;;;;;;;5.25;100.00;93772.81;2111468;28;20032;-79
2024/02/05 00:30:21;;;;;;;0.47;0.47;;;;;;;5.23;100.00;93767.13;2118292;27;20027;-80
2024/02/05 00:31:22;;;;;;;0.57;0.50;;;;;;;5.24;100.00;93766.00;2111947;28;20023;-79
2024/02/05 00:32:24;;;;;;;0.50;0.50;;;;;;;5.20;100.00;93773.16;2102075;28;20020;-81
2024/02/05 00:33:25;;;;;;;1.20;0.50;;;;;;;5.10;100.00;93773.81;2105828;28;20026;-80
2024/02/05 00:34:26;;;;;;;0.40;0.40;;;;;;;5.04;100.00;93781.31;2110727;28;20076;-79
2024/02/05 00:35:27;;;;;;;0.82;0.80;;;;;;;4.80;100.00;93774.66;2112847;28;20106;-80
2024/02/05 00:36:28;;;;;;;1.10;1.00;;;;;;;4.68;100.00;93783.59;2106509;28;20028;-80
2024/02/05 00:37:29;;;;;;;1.77;1.13;;;;;;;4.68;100.00;93769.59;2105588;28;20480;-80
2024/02/05 00:38:30;;;;;;;2.58;1.40;;;;;;;4.60;100.00;93775.94;2117717;27;20019;-79
2024/02/05 00:39:31;;;;;;;2.05;1.45;;;;;;;4.61;100.00;93780.88;2120001;27;20015;-80
2024/02/05 00:40:32;;;;;;;2.75;1.40;;;;;;;4.46;100.00;93779.19;2108461;28;20035;-79
2024/02/05 00:41:33;;;;;;;1.88;1.70;;;;;;;4.44;100.00;93782.19;2119877;27;20020;-79
2024/02/05 00:42:34;;;;;;;2.95;2.03;;;;;;;4.41;100.00;93776.84;2118845;27;20069;-80
2024/02/05 00:43:35;;;;;;;2.95;2.20;;;;;;;4.60;100.00;93778.56;2119135;27;20024;-80
2024/02/05 00:44:37;;;;;;;2.35;2.15;;;;;;;4.54;100.00;93778.91;2118062;27;20031;-81
2024/02/05 00:45:38;;;;;;;2.20;2.00;;;;;;;4.33;100.00;93777.88;2113590;28;20030;-81
2024/02/05 00:46:39;;;;;;;2.40;2.20;;;;;;;4.17;100.00;93778.03;2113957;27;20484;-79
2024/02/05 00:47:40;;;;;;;2.58;2.38;;;;;;;4.19;100.00;93781.88;2114250;28;20105;-80
2024/02/05 00:48:41;;;;;;;2.35;2.00;;;;;;;4.15;100.00;93777.66;2112785;28;20053;-81
2024/02/05 00:49:42;;;;;;;3.35;2.50;;;;;;;4.11;100.00;93785.53;2107624;28;20106;-80
2024/02/05 00:50:43;;;;;;;3.60;2.50;;;;;;;4.13;100.00;93782.56;2109037;28;20115;-80
2024/02/05 00:51:44;;;;;;;2.38;2.13;;;;;;;3.97;100.00;93791.41;2105642;28;20115;-82
2024/02/05 00:52:45;;;;;;;2.58;2.30;;;;;;;3.98;100.00;93789.50;2104061;28;20109;-80
2024/02/05 00:53:47;;;;;;;3.58;2.13;;;;;;;4.02;100.00;93787.69;2111413;28;20815;-81
2024/02/05 00:54:48;;;;;;;2.53;2.33;;;;;;;3.93;100.00;93795.13;2114523;27;20490;-80
2024/02/05 00:55:49;;;;;;;2.35;2.13;;;;;;;3.91;100.00;93792.84;2123982;27;20038;-79
2024/02/05 00:56:50;;;;;;;2.80;2.20;;;;;;;3.99;100.00;93798.97;2120098;27;20024;-82
2024/02/05 00:57:51;;;;;;;2.30;2.10;;;;;;;4.04;100.00;93793.41;2112649;28;20051;-81
2024/02/05 00:58:51;;;;;;;2.80;2.30;;;;;;;4.01;100.00;93794.09;2113144;28;20110;-82
2024/02/05 00:59:54;;;;;;;2.72;2.15;;;;;;;4.08;100.00;93791.53;2114563;28;20043;-83
2024/02/05 01:00:55;;;;;;;3.05;2.35;;;;;;;4.02;100.00;93799.03;2110914;28;20047;-79
2024/02/05 01:01:56;;;;;;;2.47;2.10;;;;;;;3.97;100.00;93796.69;2111058;28;20026;-80
2024/02/05 01:02:57;;;;;;;2.80;2.28;;;;;;;3.81;100.00;93793.44;2104305;28;20043;-82
2024/02/05 01:03:58;;;;;;;2.33;1.90;;;;;;;3.74;100.00;93802.03;2097613;28;20103;-81
2024/02/05 01:04:58;;;;;;;2.30;2.08;;;;;;;3.69;100.00;93794.41;2103874;28;20032;-80
2024/02/05 01:06:00;;;;;;;4.63;2.13;;;;;;;3.72;100.00;93790.28;2109066;28;20039;-80
2024/02/05 01:07:01;;;;;;;2.45;2.13;;;;;;;3.77;100.00;93790.72;2101290;28;20515;-81
2024/02/05 01:08:02;;;;;;;2.72;2.08;;;;;;;4.07;100.00;93791.91;2103365;28;20119;-82
2024/02/05 01:09:09;;;;;;;2.97;2.10;;;;;;;3.98;100.00;93795.56;2097335;28;20043;-81
2024/02/05 01:10:10;;;;;;;3.83;2.17;;;;;;;3.82;100.00;93794.19;2103742;27;20031;-82
2024/02/05 01:11:12;;;;;;;3.72;2.20;;;;;;;3.57;100.00;93799.13;2102685;28;20065;-80
2024/02/05 01:12:13;;;;;;;2.60;2.40;;;;;;;3.47;100.00;93798.59;2097909;28;20020;-79
2024/02/05 01:13:14;;;;;;;4.97;2.15;;;;;;;3.47;100.00;93797.84;2103115;28;20082;-81
2024/02/05 01:14:15;;;;;;;2.13;1.90;;;;;;;3.53;100.00;93802.47;2108851;27;20054;-82
2024/02/05 01:15:16;;;;;;;3.50;2.20;;;;;;;3.37;100.00;93801.03;2103014;28;20031;-81
2024/02/05 01:16:17;;;;;;;3.42;2.03;;;;;;;3.29;100.00;93805.44;2093218;28;20062;-81
2024/02/05 01:17:18;;;;;;;2.40;1.92;;;;;;;3.42;100.00;93800.75;2109915;28;20023;-83
2024/02/05 01:18:19;;;;;;;2.97;2.15;;;;;;;3.42;100.00;93792.81;2112734;28;20503;-82
2024/02/05 01:19:20;;;;;;;2.65;1.90;;;;;;;3.53;100.00;93791.88;2096491;28;20028;-81
2024/02/05 01:20:21;;;;;;;2.38;1.83;;;;;;;3.58;100.00;93792.72;2097603;28;20020;-81
2024/02/05 01:21:23;;;;;;;2.60;1.70;;;;;;;3.53;100.00;93789.25;2101622;28;20524;-81
2024/02/05 01:22:25;;;;;;;4.13;1.20;;;;;;;3.60;100.00;93796.53;2111416;28;20396;-83
2024/02/05 01:23:26;;;;;;;2.50;1.10;;;;;;;3.61;100.00;93794.66;2117220;27;20057;-82
2024/02/05 01:24:27;;;;;;;2.30;1.77;;;;;;;3.71;100.00;93791.41;2124481;27;20051;-81
2024/02/05 01:25:28;;;;;;;3.67;1.10;;;;;;;3.82;100.00;93787.03;2113106;28;20019;-83
2024/02/05 01:26:30;;;;;;;3.53;1.30;;;;;;;3.96;100.00;93791.75;2105255;28;20500;-79
2024/02/05 01:27:31;;;;;;;1.70;0.98;;;;;;;3.96;100.00;93789.88;2110493;28;20058;-80
2024/02/05 01:28:31;;;;;;;2.25;0.90;;;;;;;4.03;100.00;93782.03;2121910;27;20058;-81
2024/02/05 01:29:32;;;;;;;3.13;1.25;;;;;;;3.98;100.00;93782.34;2118496;27;20022;-80
2024/02/05 01:30:33;;;;;;;1.40;1.10;;;;;;;4.03;100.00;93784.66;2113370;27;20077;-81
2024/02/05 01:31:36;;;;;;;3.47;1.00;;;;;;;4.01;100.00;93794.09;2100691;28;20040;-80
2024/02/05 01:32:37;;;;;;;2.30;0.90;;;;;;;4.13;100.00;93783.31;2102899;28;20465;-81
2024/02/05 01:33:38;;;;;;;2.60;1.15;;;;;;;4.16;100.00;93779.16;2120480;27;20012;-81
2024/02/05 01:34:41;;;;;;;3.03;0.85;;;;;;;4.21;100.00;93779.63;2112110;28;20027;-82
2024/02/05 01:35:42;;;;;;;2.60;1.05;;;;;;;4.20;100.00;93779.97;2104206;28;20445;-82
2024/02/05 01:36:43;;;;;;;3.33;1.17;;;;;;;4.27;100.00;93782.72;2117085;27;20022;-80
2024/02/05 01:37:44;;;;;;;4.72;1.90;;;;;;;4.37;100.00;93781.34;2117835;27;20375;-81
2024/02/05 01:38:45;;;;;;;3.72;1.33;;;;;;;4.40;100.00;93785.91;2112151;28;20031;-81
2024/02/05 01:39:46;;;;;;;1.88;0.93;;;;;;;4.34;100.00;93771.47;2111216;27;20040;-82
2024/02/05 01:40:47;;;;;;;2.67;1.23;;;;;;;4.38;100.00;93772.28;2103924;28;20024;-81
2024/02/05 01:41:48;;;;;;;2.03;1.20;;;;;;;4.22;100.00;93767.16;2110484;28;20023;-82
2024/02/05 01:42:49;;;;;;;2.75;0.98;;;;;;;4.45;100.00;93764.41;2107880;27;20028;-81
2024/02/05 01:43:50;;;;;;;3.15;0.93;;;;;;;4.46;100.00;93760.66;2094221;28;20396;-79
2024/02/05 01:44:52;;;;;;;2.00;1.10;;;;;;;4.48;100.00;93764.47;2102392;28;20024;-82
2024/02/05 01:45:53;;;;;;;2.50;1.15;;;;;;;4.59;100.00;93767.22;2103653;28;20552;-81
2024/02/05 01:46:56;;;;;;;2.28;1.25;;;;;;;4.48;100.00;93767.13;2096697;28;20519;-83
2024/02/05 01:47:57;;;;;;;3.92;1.20;;;;;;;4.40;100.00;93770.78;2104228;27;20135;-80
2024/02/05 01:49:02;;;;;;;2.85;1.50;;;;;;;4.34;100.00;93774.88;2104964;28;20027;-80
2024/02/05 01:50:09;;;;;;;3.13;0.98;;;;;;;4.49;100.00;93760.69;2105265;28;20027;-80
2024/02/05 01:51:14;;;;;;;2.35;1.10;;;;;;;4.34;100.00;93769.56;2114913;27;20106;-79
2024/02/05 01:52:19;;;;;;;1.88;1.13;;;;;;;4.43;100.00;93764.00;2110719;28;20029;-83
2024/02/05 01:53:21;;;;;;;3.97;1.20;;;;;;;4.41;100.00;93758.31;2103429;28;20035;-81
2024/02/05 01:54:24;;;;;;;5.25;1.38;;;;;;;4.32;100.00;93755.94;2098275;28;20079;-81
2024/02/05 01:55:28;;;;;;;3.50;1.60;;;;;;;4.41;100.00;93768.91;2111405;27;20016;-83
2024/02/05 01:56:32;;;;;;;3.22;1.30;;;;;;;4.63;100.00;93754.03;2104611;28;20020;-82
2024/02/05 01:57:33;;;;;;;3.28;1.67;;;;;;;4.44;100.00;93755.72;2095989;28;20449;-80
2024/02/05 01:58:34;;;;;;;1.45;1.10;;;;;;;4.43;100.00;93746.25;2105947;28;20082;-80
2024/02/05 01:59:37;;;;;;;2.40;1.10;;;;;;;4.44;100.00;93754.97;2105760;28;21718;-80
2024/02/05 02:00:38;;;;;;;2.72;1.25;;;;;;;4.46;100.00;93748.16;2097389;28;20070;-82
2024/02/05 02:01:41;;;;;;;4.40;1.70;;;;;;;4.47;100.00;93751.56;2105115;27;20158;-83
2024/02/05 02:02:43;;;;;;;2.80;1.17;;;;;;;4.47;100.00;93749.69;2113468;28;20079;-81
2024/02/05 02:03:46;;;;;;;4.55;1.40;;;;;;;4.43;100.00;93748.13;2102934;28;20054;-82
2024/02/05 02:04:47;;;;;;;4.22;1.33;;;;;;;4.52;100.00;93736.16;2102257;28;20032;-81
2024/02/05 02:05:49;;;;;;;3.50;1.67;;;;;;;4.59;100.00;93740.00;2093241;28;20017;-83
2024/02/05 02:06:51;;;;;;;2.90;1.10;;;;;;;4.58;100.00;93749.81;2102620;28;20138;-81
2024/02/05 02:07:55;;;;;;;4.93;1.83;;;;;;;4.63;100.00;93749.50;2115906;27;20388;-80
2024/02/05 02:08:56;;;;;;;1.92;1.30;;;;;;;4.61;100.00;93740.38;2113144;28;20081;-80
2024/02/05 02:09:58;;;;;;;2.33;1.30;;;;;;;4.41;100.00;93748.50;2117332;27;20024;-81
2024/02/05 02:10:59;;;;;;;2.58;1.00;;;;;;;4.32;100.00;93745.38;2106171;28;20475;-81
2024/02/05 02:12:00;;;;;;;2.38;1.20;;;;;;;4.60;100.00;93741.50;2095245;28;20032;-82
2024/02/05 02:13:02;;;;;;;3.75;1.27;;;;;;;4.76;100.00;93750.78;2095977;28;20358;-82
2024/02/05 02:14:03;;;;;;;1.70;1.13;;;;;;;4.70;100.00;93741.66;2105669;28;20024;-81
2024/02/05 02:15:04;;;;;;;2.33;0.95;;;;;;;4.71;100.00;93740.50;2112595;28;20031;-83
2024/02/05 02:16:12;;;;;;;5.15;1.73;;;;;;;4.77;100.00;93748.88;2111167;28;21690;-82
2024/02/05 02:17:15;;;;;;;3.38;1.20;;;;;;;4.94;100.00;93734.28;2119234;27;20122;-83
2024/02/05 02:18:19;;;;;;;2.50;1.00;;;;;;;5.00;100.00;93741.56;2110583;28;20020;-82
2024/02/05 02:19:42;;;;;;;3.20;1.08;;;;;;;5.01;100.00;93744.97;2093341;28;20385;-82
2024/02/05 02:20:46;;;;;;;1.83;0.95;;;;;;;4.77;100.00;93752.28;2100114;28;20545;-81
2024/02/05 02:21:57;;;;;;;1.88;1.00;;;;;;;4.85;100.00;93747.06;2094070;28;20051;-81
2024/02/05 02:23:07;;;;;;;5.47;1.25;;;;;;;5.03;100.00;93748.00;2106053;28;20019;-80
2024/02/05 02:24:09;;;;;;;2.65;1.10;;;;;;;5.10;100.00;93757.94;2111077;28;20034;-82
2024/02/05 02:26:21;;;;;;;;;;;;;;;3.95;100.00;93764.56;2141919;27;20117;-81
2024/02/05 02:27:22;;;;;;;2.38;1.20;;;;;;;3.85;100.00;93761.75;2133205;27;20006;-81
2024/02/05 02:28:23;;;;;;;3.83;0.90;;;;;;;3.73;100.00;93758.22;2114630;28;20480;-81
2024/02/05 02:29:24;;;;;;;1.48;1.35;;;;;;;3.73;100.00;93752.13;2112903;28;20051;-81
2024/02/05 02:30:27;;;;;;;2.67;1.30;;;;;;;3.74;100.00;93758.97;2121404;28;20488;-82
2024/02/05 02:31:32;;;;;;;4.00;1.10;;;;;;;3.88;100.00;93753.88;2104640;28;20024;-80
2024/02/05 02:33:06;;;;;;;4.53;0.88;;;;;;;3.89;100.00;93759.91;2105876;28;20103;-82
2024/02/05 02:34:15;;;;;;;3.47;1.15;;;;;;;3.82;100.00;93755.31;2107004;28;20039;-81
2024/02/05 02:35:39;;;;;;;4.55;0.93;;;;;;;3.73;100.00;93760.06;2098429;28;20034;-83
2024/02/05 02:36:55;;;;;;;2.30;0.90;;;;;;;3.75;100.00;93757.84;2105723;28;20032;-81
2024/02/05 02:38:05;;;;;;;1.40;0.90;;;;;;;3.70;100.00;93761.56;2094595;28;20532;-81
2024/02/05 02:39:32;;;;;;;1.30;0.88;;;;;;;3.67;100.00;93767.53;2090375;28;20060;-81
2024/02/05 02:40:34;;;;;;;6.55;1.10;;;;;;;3.73;100.00;93765.34;2106303;28;20590;-83
2024/02/05 02:41:39;;;;;;;4.88;0.90;;;;;;;3.68;100.00;93769.06;2094809;28;20025;-83
2024/02/05 02:42:42;;;;;;;2.22;0.77;;;;;;;3.59;100.00;93760.63;2088811;28;20507;-83
2024/02/05 02:43:51;;;;;;;2.20;0.98;;;;;;;3.56;100.00;93771.94;2096854;28;20052;-81
2024/02/05 02:44:54;;;;;;;3.42;0.82;;;;;;;3.59;100.00;93775.72;2100726;28;20489;-80
2024/02/05 02:45:56;;;;;;;1.88;0.70;;;;;;;3.60;100.00;93775.38;2116760;28;20030;-82
2024/02/05 02:47:00;;;;;;;3.10;0.90;;;;;;;3.82;100.00;93773.81;2116257;28;20019;-80
2024/02/05 02:48:02;;;;;;;4.40;1.00;;;;;;;3.87;100.00;93764.81;2110872;28;20020;-81
2024/02/05 02:49:03;;;;;;;2.78;0.90;;;;;;;3.72;100.00;93774.41;2111513;28;20024;-81
2024/02/05 02:50:04;;;;;;;7.60;1.00;;;;;;;3.67;100.00;93775.47;2089696;28;20381;-82
2024/02/05 02:51:05;;;;;;;5.65;1.20;;;;;;;3.61;100.00;93773.50;2085691;28;20028;-81
2024/02/05 02:52:06;;;;;;;3.75;1.33;;;;;;;3.68;100.00;93774.34;2096139;28;20132;-81
2024/02/05 02:53:07;;;;;;;4.75;1.10;;;;;;;3.75;100.00;93771.81;2104268;28;20062;-83
2024/02/05 02:54:08;;;;;;;3.58;1.45;;;;;;;3.86;100.00;93771.97;2097526;28;20024;-81
2024/02/05 02:55:09;;;;;;;4.85;1.15;;;;;;;3.88;100.00;93776.91;2095916;28;20079;-82
2024/02/05 02:56:10;;;;;;;5.47;1.40;;;;;;;3.78;100.00;93780.94;2112012;28;20114;-83
2024/02/05 02:57:15;;;;;;;3.05;0.82;;;;;;;3.77;100.00;93787.31;2104160;28;20024;-83
2024/02/05 02:58:16;;;;;;;3.42;0.80;;;;;;;3.77;100.00;93782.03;2112648;28;20106;-81
2024/02/05 02:59:17;;;;;;;3.20;1.00;;;;;;;3.93;100.00;93790.59;2112042;28;20074;-82
2024/02/05 03:00:18;;;;;;;3.25;0.90;;;;;;;3.90;100.00;93791.28;2101750;28;20021;-82
2024/02/05 03:01:19;;;;;;;6.13;1.35;;;;;;;3.83;100.00;93787.81;2044450;28;20086;-82
2024/02/05 03:02:20;;;;;;;4.05;2.17;;;;;;;3.89;100.00;93789.78;2072463;28;20453;-82
2024/02/05 03:03:21;;;;;;;2.35;1.00;;;;;;;3.90;100.00;93788.66;2003740;28;20983;-80
2024/02/05 03:04:22;;;;;;;4.57;2.53;;;;;;;3.92;100.00;93790.94;2037205;28;20425;-82
2024/02/05 03:05:23;;;;;;;3.15;0.90;;;;;;;3.92;100.00;93794.34;2056437;28;21621;-82
2024/02/05 03:06:24;;;;;;;3.70;0.98;;;;;;;3.80;100.00;93789.25;2070370;28;20036;-81
2024/02/05 03:07:25;;;;;;;2.58;1.10;;;;;;;3.72;100.00;93791.03;2069263;28;20740;-83
2024/02/05 03:08:26;;;;;;;3.00;0.82;;;;;;;3.70;100.00;93782.69;1970137;28;20083;-81
2024/02/05 03:09:27;;;;;;;4.28;1.02;;;;;;;3.75;100.00;93792.22;2010749;28;20052;-80
2024/02/05 03:10:28;;;;;;;2.35;1.23;;;;;;;3.74;100.00;93788.81;2006369;28;22465;-81
2024/02/05 03:11:29;;;;;;;1.70;0.80;;;;;;;3.77;100.00;93792.59;2032722;28;20905;-80
2024/02/05 03:12:30;;;;;;;4.22;0.90;;;;;;;3.73;100.00;93791.78;2040238;28;20037;-83
2024/02/05 03:13:31;;;;;;;3.92;1.00;;;;;;;3.77;100.00;93785.44;2066339;28;20048;-80
2024/02/05 03:14:32;;;;;;;5.05;1.02;;;;;;;3.95;100.00;93787.56;2037755;28;21517;-82
2024/02/05 03:15:33;;;;;;;2.60;1.05;;;;;;;4.00;100.00;93792.59;2069363;28;20035;-82
2024/02/05 03:16:34;;;;;;;3.22;1.23;;;;;;;4.07;100.00;93787.38;2046687;28;20941;-82
2024/02/05 03:17:35;;;;;;;4.15;1.20;;;;;;;4.07;100.00;93779.44;1964176;28;21275;-81
2024/02/05 03:18:36;;;;;;;3.40;1.20;;;;;;;3.93;100.00;93779.25;1998970;28;20440;-80
2024/02/05 03:19:37;;;;;;;3.25;1.08;;;;;;;3.84;100.00;93786.69;2021577;28;20119;-82
2024/02/05 03:20:41;;;;;;;1.67;0.90;;;;;;;3.74;100.00;93777.47;2016440;28;21050;-80
2024/02/05 03:21:42;;;;;;;4.28;1.02;;;;;;;3.67;100.00;93782.66;2040012;28;20394;-83
2024/02/05 03:22:43;;;;;;;4.97;1.40;;;;;;;3.52;100.00;93784.31;2083675;28;20062;-81
2024/02/05 03:23:44;;;;;;;2.17;0.98;;;;;;;3.42;100.00;93785.66;2042728;28;20044;-80
2024/02/05 03:24:45;;;;;;;3.67;1.20;;;;;;;3.28;100.00;93782.78;2062816;28;20029;-80
2024/02/05 03:25:46;;;;;;;2.72;0.93;;;;;;;3.37;100.00;93780.66;2036406;28;20033;-81
2024/02/05 03:26:47;;;;;;;2.60;1.25;;;;;;;3.44;100.00;93780.78;1984873;28;20040;-81
2024/02/05 03:27:48;;;;;;;4.30;1.00;;;;;;;3.57;100.00;93783.25;2034679;28;20035;-82
2024/02/05 03:28:50;;;;;;;4.78;1.33;;;;;;;3.59;100.00;93786.28;2033516;28;20035;-81
2024/02/05 03:29:52;;;;;;;4.20;1.35;;;;;;;3.52;100.00;93793.00;2030216;28;20043;-81
2024/02/05 03:30:53;;;;;;;4.05;1.10;;;;;;;3.39;100.00;93782.97;2025494;28;20585;-82
2024/02/05 03:31:54;;;;;;;3.10;1.05;;;;;;;3.52;100.00;93782.44;2036192;28;20477;-83
2024/02/05 03:32:56;;;;;;;3.22;1.17;;;;;;;3.42;100.00;93793.59;2054516;28;20040;-81
2024/02/05 03:33:57;;;;;;;2.28;1.23;;;;;;;3.39;100.00;93796.19;2083659;28;20499;-82
2024/02/05 03:34:58;;;;;;;3.70;1.40;;;;;;;3.57;100.00;93786.66;2097652;28;20079;-81
2024/02/05 03:35:59;;;;;;;4.80;1.20;;;;;;;3.62;100.00;93791.63;2095049;28;20036;-82
2024/02/05 03:37:00;;;;;;;1.67;1.42;;;;;;;3.62;100.00;93791.63;2093114;28;20433;-80
2024/02/05 03:38:01;;;;;;;5.45;1.50;;;;;;;3.73;100.00;93792.56;2090491;28;20036;-82
2024/02/05 03:39:03;;;;;;;2.58;1.00;;;;;;;3.45;100.00;93781.56;2089637;28;20120;-80
2024/02/05 03:40:05;;;;;;;2.08;0.90;;;;;;;3.64;100.00;93783.34;2088812;28;20074;-82
2024/02/05 03:41:07;;;;;;;6.93;1.05;;;;;;;3.62;100.00;93796.16;2098269;28;20032;-80
2024/02/05 03:42:08;;;;;;;4.00;1.10;;;;;;;3.56;100.00;93784.34;2088066;28;20032;-83
2024/02/05 03:43:09;;;;;;;3.92;1.00;;;;;;;3.53;100.00;93786.59;2079354;28;20021;-82
2024/02/05 03:44:11;;;;;;;4.22;1.00;;;;;;;3.39;100.00;93785.63;2089113;28;20017;-79
2024/02/05 03:45:12;;;;;;;7.43;1.60;;;;;;;3.65;100.00;93796.22;2095764;28;20481;-83
2024/02/05 03:46:13;;;;;;;3.45;1.02;;;;;;;3.62;100.00;93789.00;2100708;28;20058;-82
2024/02/05 03:47:27;;;;;;;2.88;1.17;;;;;;;3.58;100.00;93784.78;2089860;28;20036;-82
2024/02/05 03:48:28;;;;;;;2.80;0.95;;;;;;;3.51;100.00;93780.13;2090391;28;20563;-82
2024/02/05 03:49:29;;;;;;;5.95;1.08;;;;;;;3.52;100.00;93784.31;2089729;28;20028;-82
2024/02/05 03:50:31;;;;;;;2.80;1.30;;;;;;;3.37;100.00;93790.47;2094193;28;20029;-82
2024/02/05 03:51:33;;;;;;;2.70;1.27;;;;;;;3.43;100.00;93781.91;2092815;28;20040;-82
2024/02/05 03:52:34;;;;;;;3.38;1.13;;;;;;;3.37;100.00;93778.03;2095590;28;20108;-83
2024/02/05 03:53:35;;;;;;;7.55;1.10;;;;;;;3.41;100.00;93781.50;2104085;28;20028;-81
2024/02/05 03:54:37;;;;;;;2.97;1.10;;;;;;;3.29;100.00;93786.94;2085422;28;20537;-81
2024/02/05 03:55:38;;;;;;;1.90;1.10;;;;;;;3.32;100.00;93793.41;2084628;28;20222;-82
2024/02/05 03:56:42;;;;;;;2.72;1.55;;;;;;;3.32;100.00;93788.91;2095234;28;20088;-81
2024/02/05 03:57:45;;;;;;;2.63;1.17;;;;;;;3.28;100.00;93788.84;2095572;28;20031;-81
2024/02/05 03:58:48;;;;;;;4.72;1.33;;;;;;;3.34;100.00;93791.97;2081634;28;20128;-81
2024/02/05 03:59:49;;;;;;;2.90;1.17;;;;;;;3.36;100.00;93789.72;2079248;28;20067;-81
2024/02/05 04:00:50;;;;;;;3.58;0.95;;;;;;;3.35;100.00;93795.38;2087625;28;20022;-82
2024/02/05 04:01:51;;;;;;;4.50;1.05;;;;;;;3.44;100.00;93801.94;2081239;28;20028;-82
2024/02/05 04:02:52;;;;;;;5.43;1.23;;;;;;;3.40;100.00;93798.47;2096669;28;20061;-82
2024/02/05 04:03:53;;;;;;;1.73;0.90;;;;;;;3.35;100.00;93798.00;2090329;28;20052;-81
2024/02/05 04:04:55;;;;;;;6.68;1.40;;;;;;;3.33;100.00;93800.22;2088066;28;20139;-80
2024/02/05 04:05:57;;;;;;;2.05;1.08;;;;;;;3.27;100.00;93802.41;2106499;28;20065;-80
2024/02/05 04:06:58;;;;;;;8.05;1.38;;;;;;;3.28;100.00;93804.69;2077938;28;20028;-82
2024/02/05 04:08:00;;;;;;;4.65;1.52;;;;;;;3.31;100.00;93810.41;2080403;28;20050;-83
2024/02/05 04:09:01;;;;;;;2.88;0.90;;;;;;;3.36;100.00;93812.75;2102718;28;20028;-82
2024/02/05 04:10:02;;;;;;;6.30;1.95;;;;;;;3.34;100.00;93812.34;2099283;28;20057;-81
2024/02/05 04:11:03;;;;;;;4.40;1.55;;;;;;;3.32;100.00;93814.56;2106028;28;20016;-82
2024/02/05 04:12:05;;;;;;;5.68;1.90;;;;;;;3.32;100.00;93830.41;2084137;28;20025;-81
2024/02/05 04:13:06;;;;;;;3.67;1.63;;;;;;;3.32;100.00;93825.13;2069980;28;20056;-81
2024/02/05 04:14:09;;;;;;;3.70;1.88;;;;;;;3.32;100.00;93820.59;2076752;28;20021;-81
2024/02/05 04:15:11;;;;;;;3.97;1.48;;;;;;;3.30;100.00;93824.72;2085785;28;20082;-81
2024/02/05 04:16:13;;;;;;;3.80;1.20;;;;;;;3.42;100.00;93829.81;2084709;28;20670;-81
2024/02/05 04:17:14;;;;;;;4.60;0.82;;;;;;;3.37;100.00;93827.47;2077021;28;20120;-82
2024/02/05 04:18:15;;;;;;;4.45;1.00;;;;;;;3.35;100.00;93829.72;2070157;28;20056;-82
2024/02/05 04:19:17;;;;;;;3.05;1.20;;;;;;;3.25;100.00;93839.00;2075362;28;20431;-82
2024/02/05 04:20:18;;;;;;;2.15;0.98;;;;;;;3.23;100.00;93828.00;2078542;28;20022;-82
2024/02/05 04:21:19;;;;;;;3.60;2.10;;;;;;;3.18;100.00;93826.41;2082371;28;20033;-81
2024/02/05 04:22:20;;;;;;;5.40;1.15;;;;;;;3.21;100.00;93831.00;2079092;28;20438;-82
2024/02/05 04:23:25;;;;;;;3.70;1.00;;;;;;;3.14;100.00;93830.88;2091415;28;20024;-82
2024/02/05 04:24:26;;;;;;;5.07;1.15;;;;;;;3.21;100.00;93833.63;2099944;28;20021;-83
2024/02/05 04:25:28;;;;;;;2.42;1.00;;;;;;;3.21;100.00;93836.28;2081033;28;20112;-80
2024/02/05 04:26:29;;;;;;;5.50;1.17;;;;;;;3.18;100.00;93831.69;2083594;28;20040;-82
2024/02/05 04:27:30;;;;;;;2.70;1.00;;;;;;;3.21;100.00;93838.91;2077661;28;20053;-82
2024/02/05 04:28:33;;;;;;;3.03;1.10;;;;;;;3.09;100.00;93835.66;2075806;28;20370;-82
2024/02/05 04:29:34;;;;;;;3.85;1.42;;;;;;;3.04;100.00;93836.72;2082721;28;20024;-81
2024/02/05 04:30:37;;;;;;;2.70;1.17;;;;;;;3.05;100.00;93837.47;2098923;28;20025;-81
2024/02/05 04:31:38;;;;;;;4.30;1.17;;;;;;;2.91;100.00;93832.72;2091820;28;20028;-81
2024/02/05 04:32:40;;;;;;;2.70;1.08;;;;;;;3.05;100.00;93832.97;2089166;28;20025;-81
2024/02/05 04:33:41;;;;;;;3.15;1.02;;;;;;;3.00;100.00;93828.72;2075903;28;20024;-83
2024/02/05 04:34:42;;;;;;;5.88;1.15;;;;;;;3.06;100.00;93837.13;2085923;28;20031;-81
2024/02/05 04:35:43;;;;;;;5.50;1.38;;;;;;;2.87;100.00;93837.16;2096163;28;20028;-80
2024/02/05 04:36:44;;;;;;;2.97;0.95;;;;;;;2.83;100.00;93836.31;2082097;28;20025;-81
2024/02/05 04:37:45;;;;;;;3.35;1.00;;;;;;;2.76;100.00;93836.94;2081342;28;20025;-83
2024/02/05 04:38:46;;;;;;;2.08;1.02;;;;;;;2.80;100.00;93835.13;2090928;28;20418;-81
2024/02/05 04:39:47;;;;;;;3.22;1.00;;;;;;;2.73;100.00;93830.50;2088760;28;20020;-82
2024/02/05 04:40:47;;;;;;;1.83;0.90;;;;;;;2.82;100.00;93838.19;2079263;28;20017;-81
2024/02/05 04:41:49;;;;;;;3.72;0.93;;;;;;;2.66;100.00;93845.41;2063585;28;20057;-82
2024/02/05 04:42:50;;;;;;;4.38;1.10;;;;;;;2.63;100.00;93838.19;2079038;28;20377;-81
2024/02/05 04:43:51;;;;;;;4.28;1.58;;;;;;;2.44;100.00;93836.31;2088998;28;20057;-82
2024/02/05 04:44:52;;;;;;;1.88;1.13;;;;;;;2.49;100.00;93836.78;2090135;28;20657;-81
2024/02/05 04:45:53;;;;;;;2.05;1.00;;;;;;;2.47;100.00;93840.91;2096704;28;20063;-82
2024/02/05 04:46:54;;;;;;;2.40;1.00;;;;;;;2.40;100.00;93846.03;2079459;28;20029;-80
2024/02/05 04:47:55;;;;;;;2.38;1.33;;;;;;;2.42;100.00;93849.84;2090159;28;20024;-80
2024/02/05 04:49:14;;;;;;;5.65;3.55;;;;;;;2.37;100.00;93846.69;2102799;28;20032;-86
2024/02/05 04:50:15;;;;;;;7.95;4.13;;;;;;;2.32;100.00;93839.81;2093410;28;20016;-81
2024/02/05 04:51:16;;;;;;;7.70;5.05;;;;;;;2.25;100.00;93845.72;2090391;28;21197;-82
2024/02/05 04:52:17;;;;;;;7.43;3.58;;;;;;;2.18;100.00;93842.94;2094852;28;20543;-81
2024/02/05 04:53:18;;;;;;;3.33;2.33;;;;;;;2.22;100.00;93849.06;2087789;28;20163;-82
2024/02/05 04:54:19;;;;;;;2.97;1.90;;;;;;;2.14;100.00;93857.16;2097602;28;20078;-79